Airfield :
LOGIN :

Register | Disclaimer

   EN    FR    IT 

 










Legend :    VFR   Marginal VFR   IFR   Intensive IFR   Very Intensive IFR
Visi :
Ceiling :
>= 8 km
>= 3000ft
5 to 8 km
1000 to 3000 ft
1500m to 5 km
500 to 1000 ft
800 to 1500m
200 to 500 ft
< 800m
< 200 ft
Symbols :   Thunderstorms  Fog  Heavy snow  Heavy precipitations  Wind > 20 kt
SIGMETs :     Misc.  Thunderstorms  Icing  Turbulence  Mountain Waves  Volcanic Ashes






- Airport Elevation : 101 ft
- IATA code : GLO


EGBJ - Gloucestershire

CURRENT METAR :
  • 021220Z 00000KT 0700 FG VV/// 03/03 Q1027

EXPIRED METARs :
  • 021150Z 00000KT 2000 BR OVC002 03/03 Q1027
  • 021120Z 00000KT 2500 BR OVC002 03/03 Q1027
  • 021050Z 00000KT 1500 R27/0825 BR VV/// 02/02 Q1027
  • 021020Z 00000KT 0500 R27/P1350 FG VV/// 02/02 Q1027
  • 020950Z 00000KT 0700 R27/P1350 FG VV/// 02/02 Q1027

TAF AMD TAF EGBJ
Valid from the 02 at 12:00 until the 02 at 20:00 UTC


021227Z 0212/0220 02005KT 0600 FG VV///
BECMG 0212/0215 9999 NSW FEW008
PROB30
TEMPO 0215/0220 BKN008



MET'MAP, your aeronautical weather chart ! - Copyright ORBIFLY December 2007 - Disclaimer

ORBIFLY MET'MAP TEAM :

Programming & Development : Alexandra Zaïnal
Original concept : Baudouin d'Aumeries
Technical & hardware support : Manuel Goepfert
Assistance : Marc-Olivier Méhu




SOURCES & CREDITS :

   NOAA